sensor_id;sensor_type;location;lat;lon;timestamp;temperature;humidity
11043;DHT22;5574;48.786;10.120;2023-03-01T00:01:53;-0.30;99.90
11043;DHT22;5574;48.786;10.120;2023-03-01T00:04:20;-0.20;99.90
11043;DHT22;5574;48.786;10.120;2023-03-01T00:06:47;-0.20;99.90
11043;DHT22;5574;48.786;10.120;2023-03-01T00:09:14;-0.20;99.90
11043;DHT22;5574;48.786;10.120;2023-03-01T00:11:41;-0.20;99.90
11043;DHT22;5574;48.786;10.120;2023-03-01T00:14:08;-0.10;99.90
11043;DHT22;5574;48.786;10.120;2023-03-01T00:16:37;-0.10;99.90
11043;DHT22;5574;48.786;10.120;2023-03-01T00:19:07;-0.10;99.90
11043;DHT22;5574;48.786;10.120;2023-03-01T00:21:34;-0.10;99.90
11043;DHT22;5574;48.786;10.120;2023-03-01T00:24:02;-0.10;99.90
11043;DHT22;5574;48.786;10.120;2023-03-01T00:26:29;-0.10;99.90
11043;DHT22;5574;48.786;10.120;2023-03-01T00:28:57;-0.10;99.90
11043;DHT22;5574;48.786;10.120;2023-03-01T00:31:26;-0.10;99.90
11043;DHT22;5574;48.786;10.120;2023-03-01T00:33:54;-0.10;99.90
11043;DHT22;5574;48.786;10.120;2023-03-01T00:36:25;-0.10;99.90
11043;DHT22;5574;48.786;10.120;2023-03-01T00:38:52;-0.10;99.90
11043;DHT22;5574;48.786;10.120;2023-03-01T00:41:19;-0.10;99.90
11043;DHT22;5574;48.786;10.120;2023-03-01T00:43:48;-0.10;99.90
11043;DHT22;5574;48.786;10.120;2023-03-01T00:46:16;-0.10;99.90
11043;DHT22;5574;48.786;10.120;2023-03-01T00:48:43;0.00;99.90
11043;DHT22;5574;48.786;10.120;2023-03-01T00:51:12;0.00;99.90
11043;DHT22;5574;48.786;10.120;2023-03-01T00:53:41;0.10;99.90
11043;DHT22;5574;48.786;10.120;2023-03-01T00:56:10;0.10;99.90
11043;DHT22;5574;48.786;10.120;2023-03-01T00:58:37;0.10;99.90
11043;DHT22;5574;48.786;10.120;2023-03-01T01:01:07;0.10;99.90
11043;DHT22;5574;48.786;10.120;2023-03-01T01:03:42;0.20;99.90
11043;DHT22;5574;48.786;10.120;2023-03-01T01:06:13;0.20;99.90
11043;DHT22;5574;48.786;10.120;2023-03-01T01:08:41;0.20;99.90
11043;DHT22;5574;48.786;10.120;2023-03-01T01:11:09;0.30;99.90
11043;DHT22;5574;48.786;10.120;2023-03-01T01:13:36;0.20;99.90
11043;DHT22;5574;48.786;10.120;2023-03-01T01:16:03;0.30;99.90
11043;DHT22;5574;48.786;10.120;2023-03-01T01:18:30;0.30;99.90
11043;DHT22;5574;48.786;10.120;2023-03-01T01:20:57;0.30;99.90
11043;DHT22;5574;48.786;10.120;2023-03-01T01:23:24;0.40;99.90
11043;DHT22;5574;48.786;10.120;2023-03-01T01:25:51;0.30;99.90
11043;DHT22;5574;48.786;10.120;2023-03-01T01:28:18;0.50;99.90
11043;DHT22;5574;48.786;10.120;2023-03-01T01:30:45;0.40;99.90
11043;DHT22;5574;48.786;10.120;2023-03-01T01:33:11;0.40;99.90
11043;DHT22;5574;48.786;10.120;2023-03-01T01:35:38;0.50;99.90
11043;DHT22;5574;48.786;10.120;2023-03-01T01:38:05;0.50;99.90
11043;DHT22;5574;48.786;10.120;2023-03-01T01:40:31;0.50;99.90
11043;DHT22;5574;48.786;10.120;2023-03-01T01:42:59;0.50;99.90
11043;DHT22;5574;48.786;10.120;2023-03-01T01:45:32;0.50;99.90
11043;DHT22;5574;48.786;10.120;2023-03-01T01:48:02;0.50;99.90
11043;DHT22;5574;48.786;10.120;2023-03-01T01:50:31;0.60;99.90
11043;DHT22;5574;48.786;10.120;2023-03-01T01:53:05;0.60;99.90
11043;DHT22;5574;48.786;10.120;2023-03-01T01:55:33;0.60;99.90
11043;DHT22;5574;48.786;10.120;2023-03-01T01:58:05;0.60;99.90
11043;DHT22;5574;48.786;10.120;2023-03-01T02:00:34;0.60;99.90
11043;DHT22;5574;48.786;10.120;2023-03-01T02:03:07;0.60;99.90
11043;DHT22;5574;48.786;10.120;2023-03-01T02:05:38;0.60;99.90
11043;DHT22;5574;48.786;10.120;2023-03-01T02:08:06;0.60;99.90
11043;DHT22;5574;48.786;10.120;2023-03-01T02:10:34;0.70;99.90
11043;DHT22;5574;48.786;10.120;2023-03-01T02:13:03;0.70;99.90
11043;DHT22;5574;48.786;10.120;2023-03-01T02:15:31;0.70;99.90
11043;DHT22;5574;48.786;10.120;2023-03-01T02:17:59;0.70;99.90
11043;DHT22;5574;48.786;10.120;2023-03-01T02:20:31;0.70;99.90
11043;DHT22;5574;48.786;10.120;2023-03-01T02:23:00;0.80;99.90
11043;DHT22;5574;48.786;10.120;2023-03-01T02:25:33;0.90;99.90
11043;DHT22;5574;48.786;10.120;2023-03-01T02:28:10;0.90;99.90
11043;DHT22;5574;48.786;10.120;2023-03-01T02:30:40;0.90;99.90
11043;DHT22;5574;48.786;10.120;2023-03-01T02:33:27;0.90;99.90
11043;DHT22;5574;48.786;10.120;2023-03-01T02:35:54;0.90;99.90
11043;DHT22;5574;48.786;10.120;2023-03-01T02:38:22;0.90;99.90
11043;DHT22;5574;48.786;10.120;2023-03-01T02:40:50;0.80;99.90
11043;DHT22;5574;48.786;10.120;2023-03-01T02:43:19;0.90;99.90
11043;DHT22;5574;48.786;10.120;2023-03-01T02:45:50;0.90;99.90
11043;DHT22;5574;48.786;10.120;2023-03-01T02:48:18;1.00;99.90
11043;DHT22;5574;48.786;10.120;2023-03-01T02:50:55;1.00;99.90
11043;DHT22;5574;48.786;10.120;2023-03-01T02:53:30;0.90;99.90
11043;DHT22;5574;48.786;10.120;2023-03-01T02:55:57;1.00;99.90
11043;DHT22;5574;48.786;10.120;2023-03-01T02:58:25;1.00;99.90
11043;DHT22;5574;48.786;10.120;2023-03-01T03:00:53;1.00;99.90
11043;DHT22;5574;48.786;10.120;2023-03-01T03:03:21;1.10;99.90
11043;DHT22;5574;48.786;10.120;2023-03-01T03:05:48;1.10;99.90
11043;DHT22;5574;48.786;10.120;2023-03-01T03:08:15;1.10;99.90
11043;DHT22;5574;48.786;10.120;2023-03-01T03:10:49;1.20;99.90
11043;DHT22;5574;48.786;10.120;2023-03-01T03:13:16;1.20;99.90
11043;DHT22;5574;48.786;10.120;2023-03-01T03:15:43;1.20;99.90
11043;DHT22;5574;48.786;10.120;2023-03-01T03:18:14;1.20;99.90
11043;DHT22;5574;48.786;10.120;2023-03-01T03:20:42;1.20;99.90
11043;DHT22;5574;48.786;10.120;2023-03-01T03:23:09;1.20;99.90
11043;DHT22;5574;48.786;10.120;2023-03-01T03:25:35;1.20;99.90
11043;DHT22;5574;48.786;10.120;2023-03-01T03:28:03;1.20;99.90
11043;DHT22;5574;48.786;10.120;2023-03-01T03:30:36;1.20;99.90
11043;DHT22;5574;48.786;10.120;2023-03-01T03:33:05;1.20;99.90
11043;DHT22;5574;48.786;10.120;2023-03-01T03:35:39;1.30;99.90
11043;DHT22;5574;48.786;10.120;2023-03-01T03:38:08;1.30;99.90
11043;DHT22;5574;48.786;10.120;2023-03-01T03:40:43;1.20;99.90
11043;DHT22;5574;48.786;10.120;2023-03-01T03:43:13;1.20;99.90
11043;DHT22;5574;48.786;10.120;2023-03-01T03:45:39;1.30;99.90
11043;DHT22;5574;48.786;10.120;2023-03-01T03:48:07;1.30;99.90
11043;DHT22;5574;48.786;10.120;2023-03-01T03:50:36;1.30;99.90
11043;DHT22;5574;48.786;10.120;2023-03-01T03:53:05;1.30;99.90
11043;DHT22;5574;48.786;10.120;2023-03-01T03:55:32;1.30;99.90
11043;DHT22;5574;48.786;10.120;2023-03-01T03:57:59;1.30;99.90
11043;DHT22;5574;48.786;10.120;2023-03-01T04:00:32;1.30;99.90
11043;DHT22;5574;48.786;10.120;2023-03-01T04:02:59;1.30;99.90
11043;DHT22;5574;48.786;10.120;2023-03-01T04:05:26;1.30;99.90
11043;DHT22;5574;48.786;10.120;2023-03-01T04:07:55;1.30;99.90
11043;DHT22;5574;48.786;10.120;2023-03-01T04:10:28;1.20;99.90
11043;DHT22;5574;48.786;10.120;2023-03-01T04:12:54;1.20;99.90
11043;DHT22;5574;48.786;10.120;2023-03-01T04:15:23;1.20;99.90
11043;DHT22;5574;48.786;10.120;2023-03-01T04:17:51;1.20;99.90
11043;DHT22;5574;48.786;10.120;2023-03-01T04:20:20;1.20;99.90
11043;DHT22;5574;48.786;10.120;2023-03-01T04:22:50;1.20;99.90
11043;DHT22;5574;48.786;10.120;2023-03-01T04:25:18;1.10;99.90
11043;DHT22;5574;48.786;10.120;2023-03-01T04:27:45;1.10;99.90
11043;DHT22;5574;48.786;10.120;2023-03-01T04:30:12;1.00;99.90
11043;DHT22;5574;48.786;10.120;2023-03-01T04:32:39;1.00;99.90
11043;DHT22;5574;48.786;10.120;2023-03-01T04:35:06;1.00;99.90
11043;DHT22;5574;48.786;10.120;2023-03-01T04:37:33;1.00;99.90
11043;DHT22;5574;48.786;10.120;2023-03-01T04:40:00;1.00;99.90
11043;DHT22;5574;48.786;10.120;2023-03-01T04:42:33;1.00;99.90
11043;DHT22;5574;48.786;10.120;2023-03-01T04:44:59;1.00;99.90
11043;DHT22;5574;48.786;10.120;2023-03-01T04:47:26;1.00;99.90
11043;DHT22;5574;48.786;10.120;2023-03-01T04:49:53;1.00;99.90
11043;DHT22;5574;48.786;10.120;2023-03-01T04:52:19;1.00;99.90
11043;DHT22;5574;48.786;10.120;2023-03-01T04:54:46;1.00;99.90
11043;DHT22;5574;48.786;10.120;2023-03-01T04:57:13;1.00;99.90
11043;DHT22;5574;48.786;10.120;2023-03-01T04:59:41;1.00;99.90
11043;DHT22;5574;48.786;10.120;2023-03-01T05:02:07;1.00;99.90
11043;DHT22;5574;48.786;10.120;2023-03-01T05:04:34;1.00;99.90
11043;DHT22;5574;48.786;10.120;2023-03-01T05:07:00;1.00;99.90
11043;DHT22;5574;48.786;10.120;2023-03-01T05:09:27;1.00;99.90
11043;DHT22;5574;48.786;10.120;2023-03-01T05:11:54;1.00;99.90
11043;DHT22;5574;48.786;10.120;2023-03-01T05:14:20;1.00;99.90
11043;DHT22;5574;48.786;10.120;2023-03-01T05:16:49;1.00;99.90
11043;DHT22;5574;48.786;10.120;2023-03-01T05:19:16;0.90;99.90
11043;DHT22;5574;48.786;10.120;2023-03-01T05:21:48;0.90;99.90
11043;DHT22;5574;48.786;10.120;2023-03-01T05:24:38;0.90;99.90
11043;DHT22;5574;48.786;10.120;2023-03-01T05:27:05;0.90;99.90
11043;DHT22;5574;48.786;10.120;2023-03-01T05:29:32;0.80;99.90
11043;DHT22;5574;48.786;10.120;2023-03-01T05:32:02;0.80;99.90
11043;DHT22;5574;48.786;10.120;2023-03-01T05:34:30;0.90;99.90
11043;DHT22;5574;48.786;10.120;2023-03-01T05:36:58;0.90;99.90
11043;DHT22;5574;48.786;10.120;2023-03-01T05:39:27;0.90;99.90
11043;DHT22;5574;48.786;10.120;2023-03-01T05:41:55;0.90;99.90
11043;DHT22;5574;48.786;10.120;2023-03-01T05:44:23;0.90;99.90
11043;DHT22;5574;48.786;10.120;2023-03-01T05:46:50;0.90;99.90
11043;DHT22;5574;48.786;10.120;2023-03-01T05:49:18;0.90;99.90
11043;DHT22;5574;48.786;10.120;2023-03-01T05:51:49;0.90;99.90
11043;DHT22;5574;48.786;10.120;2023-03-01T05:54:16;0.90;99.90
11043;DHT22;5574;48.786;10.120;2023-03-01T05:56:43;0.90;99.90
11043;DHT22;5574;48.786;10.120;2023-03-01T05:59:11;0.90;99.90
11043;DHT22;5574;48.786;10.120;2023-03-01T06:01:39;0.80;99.90
11043;DHT22;5574;48.786;10.120;2023-03-01T06:04:06;0.80;99.90
11043;DHT22;5574;48.786;10.120;2023-03-01T06:06:35;0.70;99.90
11043;DHT22;5574;48.786;10.120;2023-03-01T06:09:02;0.70;99.90
11043;DHT22;5574;48.786;10.120;2023-03-01T06:11:29;0.80;99.90
11043;DHT22;5574;48.786;10.120;2023-03-01T06:13:56;0.70;99.90
11043;DHT22;5574;48.786;10.120;2023-03-01T06:16:22;0.70;99.90
11043;DHT22;5574;48.786;10.120;2023-03-01T06:18:49;0.60;99.90
11043;DHT22;5574;48.786;10.120;2023-03-01T06:21:16;0.60;99.90
11043;DHT22;5574;48.786;10.120;2023-03-01T06:23:44;0.50;99.90
11043;DHT22;5574;48.786;10.120;2023-03-01T06:26:10;0.50;99.90
11043;DHT22;5574;48.786;10.120;2023-03-01T06:28:37;0.50;99.90
11043;DHT22;5574;48.786;10.120;2023-03-01T06:31:04;0.50;99.90
11043;DHT22;5574;48.786;10.120;2023-03-01T06:33:33;0.40;99.90
11043;DHT22;5574;48.786;10.120;2023-03-01T06:36:01;0.40;99.90
11043;DHT22;5574;48.786;10.120;2023-03-01T06:38:28;0.30;99.90
11043;DHT22;5574;48.786;10.120;2023-03-01T06:40:56;0.40;99.90
11043;DHT22;5574;48.786;10.120;2023-03-01T06:43:23;0.30;99.90
11043;DHT22;5574;48.786;10.120;2023-03-01T06:45:49;0.30;99.90
11043;DHT22;5574;48.786;10.120;2023-03-01T06:48:16;0.30;99.90
11043;DHT22;5574;48.786;10.120;2023-03-01T06:50:43;0.20;99.90
11043;DHT22;5574;48.786;10.120;2023-03-01T06:53:10;0.30;99.90
11043;DHT22;5574;48.786;10.120;2023-03-01T06:55:36;0.40;99.90
11043;DHT22;5574;48.786;10.120;2023-03-01T06:58:04;0.50;99.90
11043;DHT22;5574;48.786;10.120;2023-03-01T07:00:31;0.70;99.90
11043;DHT22;5574;48.786;10.120;2023-03-01T07:02:59;0.90;99.90
11043;DHT22;5574;48.786;10.120;2023-03-01T07:05:27;1.00;99.90
11043;DHT22;5574;48.786;10.120;2023-03-01T07:07:54;1.00;99.90
11043;DHT22;5574;48.786;10.120;2023-03-01T07:10:21;1.10;99.90
11043;DHT22;5574;48.786;10.120;2023-03-01T07:12:48;1.20;99.90
11043;DHT22;5574;48.786;10.120;2023-03-01T07:15:16;1.30;99.90
11043;DHT22;5574;48.786;10.120;2023-03-01T07:17:43;1.50;99.90
11043;DHT22;5574;48.786;10.120;2023-03-01T07:20:11;1.50;99.90
11043;DHT22;5574;48.786;10.120;2023-03-01T07:22:39;1.50;99.90
11043;DHT22;5574;48.786;10.120;2023-03-01T07:25:08;1.70;99.90
11043;DHT22;5574;48.786;10.120;2023-03-01T07:27:35;1.80;99.90
11043;DHT22;5574;48.786;10.120;2023-03-01T07:30:02;2.00;99.90
11043;DHT22;5574;48.786;10.120;2023-03-01T07:32:30;2.10;99.80
11043;DHT22;5574;48.786;10.120;2023-03-01T07:34:57;2.20;99.70
11043;DHT22;5574;48.786;10.120;2023-03-01T07:37:24;2.20;99.20
11043;DHT22;5574;48.786;10.120;2023-03-01T07:39:50;2.40;99.50
11043;DHT22;5574;48.786;10.120;2023-03-01T07:42:17;2.50;99.20
11043;DHT22;5574;48.786;10.120;2023-03-01T07:44:44;2.50;99.30
11043;DHT22;5574;48.786;10.120;2023-03-01T07:47:10;2.60;99.30
11043;DHT22;5574;48.786;10.120;2023-03-01T07:49:38;2.70;98.60
11043;DHT22;5574;48.786;10.120;2023-03-01T07:52:05;2.70;98.50
11043;DHT22;5574;48.786;10.120;2023-03-01T07:54:32;2.90;98.50
11043;DHT22;5574;48.786;10.120;2023-03-01T07:56:58;2.90;98.50
11043;DHT22;5574;48.786;10.120;2023-03-01T07:59:25;2.80;98.30
11043;DHT22;5574;48.786;10.120;2023-03-01T08:01:54;2.90;98.30
11043;DHT22;5574;48.786;10.120;2023-03-01T08:04:21;3.10;98.70
11043;DHT22;5574;48.786;10.120;2023-03-01T08:06:51;3.30;98.20
11043;DHT22;5574;48.786;10.120;2023-03-01T08:09:18;3.30;97.60
11043;DHT22;5574;48.786;10.120;2023-03-01T08:11:45;3.50;97.60
11043;DHT22;5574;48.786;10.120;2023-03-01T08:14:11;3.40;97.90
11043;DHT22;5574;48.786;10.120;2023-03-01T08:16:38;3.30;97.50
11043;DHT22;5574;48.786;10.120;2023-03-01T08:19:05;3.20;97.40
11043;DHT22;5574;48.786;10.120;2023-03-01T08:21:32;3.20;97.70
11043;DHT22;5574;48.786;10.120;2023-03-01T08:24:01;3.20;97.40
11043;DHT22;5574;48.786;10.120;2023-03-01T08:26:28;3.30;97.70
11043;DHT22;5574;48.786;10.120;2023-03-01T08:28:55;3.30;97.40
11043;DHT22;5574;48.786;10.120;2023-03-01T08:31:23;3.40;97.80
11043;DHT22;5574;48.786;10.120;2023-03-01T08:33:52;3.40;97.30
11043;DHT22;5574;48.786;10.120;2023-03-01T08:36:22;3.50;97.60
11043;DHT22;5574;48.786;10.120;2023-03-01T08:38:49;3.40;96.80
11043;DHT22;5574;48.786;10.120;2023-03-01T08:41:17;3.40;97.30
11043;DHT22;5574;48.786;10.120;2023-03-01T08:43:44;3.60;98.20
11043;DHT22;5574;48.786;10.120;2023-03-01T08:46:11;3.70;97.40
11043;DHT22;5574;48.786;10.120;2023-03-01T08:48:38;3.70;96.70
11043;DHT22;5574;48.786;10.120;2023-03-01T08:51:10;3.80;96.50
11043;DHT22;5574;48.786;10.120;2023-03-01T08:53:37;3.80;96.20
11043;DHT22;5574;48.786;10.120;2023-03-01T08:56:04;3.50;96.10
11043;DHT22;5574;48.786;10.120;2023-03-01T08:58:33;3.70;97.10
11043;DHT22;5574;48.786;10.120;2023-03-01T09:01:00;3.80;96.60
11043;DHT22;5574;48.786;10.120;2023-03-01T09:03:27;3.90;96.50
11043;DHT22;5574;48.786;10.120;2023-03-01T09:05:59;3.80;96.20
11043;DHT22;5574;48.786;10.120;2023-03-01T09:08:26;3.80;96.20
11043;DHT22;5574;48.786;10.120;2023-03-01T09:10:53;3.80;96.10
11043;DHT22;5574;48.786;10.120;2023-03-01T09:13:20;3.80;96.10
11043;DHT22;5574;48.786;10.120;2023-03-01T09:15:50;4.00;96.40
11043;DHT22;5574;48.786;10.120;2023-03-01T09:18:17;3.90;95.70
11043;DHT22;5574;48.786;10.120;2023-03-01T09:20:43;3.90;95.80
11043;DHT22;5574;48.786;10.120;2023-03-01T09:23:10;4.10;96.00
11043;DHT22;5574;48.786;10.120;2023-03-01T09:25:37;4.20;95.70
11043;DHT22;5574;48.786;10.120;2023-03-01T09:28:04;4.30;95.50
11043;DHT22;5574;48.786;10.120;2023-03-01T09:30:30;4.30;95.10
11043;DHT22;5574;48.786;10.120;2023-03-01T09:32:58;4.40;95.40
11043;DHT22;5574;48.786;10.120;2023-03-01T09:35:25;4.50;95.40
11043;DHT22;5574;48.786;10.120;2023-03-01T09:37:52;4.60;95.20
11043;DHT22;5574;48.786;10.120;2023-03-01T09:40:20;4.70;94.80
11043;DHT22;5574;48.786;10.120;2023-03-01T09:42:53;4.70;94.90
11043;DHT22;5574;48.786;10.120;2023-03-01T09:45:33;4.90;95.00
11043;DHT22;5574;48.786;10.120;2023-03-01T09:48:05;4.90;94.70
11043;DHT22;5574;48.786;10.120;2023-03-01T09:50:35;4.80;94.50
11043;DHT22;5574;48.786;10.120;2023-03-01T09:53:04;4.90;94.50
11043;DHT22;5574;48.786;10.120;2023-03-01T09:55:37;5.10;94.40
11043;DHT22;5574;48.786;10.120;2023-03-01T09:58:31;5.10;94.00
11043;DHT22;5574;48.786;10.120;2023-03-01T10:01:10;5.00;94.00
11043;DHT22;5574;48.786;10.120;2023-03-01T10:03:44;5.20;94.40
11043;DHT22;5574;48.786;10.120;2023-03-01T10:06:20;5.30;94.10
11043;DHT22;5574;48.786;10.120;2023-03-01T10:08:52;5.40;94.30
11043;DHT22;5574;48.786;10.120;2023-03-01T10:11:22;5.60;94.20
11043;DHT22;5574;48.786;10.120;2023-03-01T10:13:55;5.70;93.90
11043;DHT22;5574;48.786;10.120;2023-03-01T10:16:28;6.00;94.40
11043;DHT22;5574;48.786;10.120;2023-03-01T10:19:00;6.10;93.00
11043;DHT22;5574;48.786;10.120;2023-03-01T10:21:28;6.20;93.10
11043;DHT22;5574;48.786;10.120;2023-03-01T10:24:04;6.40;92.80
11043;DHT22;5574;48.786;10.120;2023-03-01T10:26:43;6.60;92.90
11043;DHT22;5574;48.786;10.120;2023-03-01T10:29:13;6.90;92.80
11043;DHT22;5574;48.786;10.120;2023-03-01T10:31:43;6.80;92.10
11043;DHT22;5574;48.786;10.120;2023-03-01T10:34:14;6.90;92.20
11043;DHT22;5574;48.786;10.120;2023-03-01T10:36:42;6.90;91.60
11043;DHT22;5574;48.786;10.120;2023-03-01T10:39:15;6.90;91.60
11043;DHT22;5574;48.786;10.120;2023-03-01T10:41:54;6.90;91.70
11043;DHT22;5574;48.786;10.120;2023-03-01T10:44:45;6.90;91.90
11043;DHT22;5574;48.786;10.120;2023-03-01T10:47:18;7.10;91.70
11043;DHT22;5574;48.786;10.120;2023-03-01T10:49:59;7.20;92.00
11043;DHT22;5574;48.786;10.120;2023-03-01T10:52:32;7.30;91.00
11043;DHT22;5574;48.786;10.120;2023-03-01T10:55:01;7.40;90.90
11043;DHT22;5574;48.786;10.120;2023-03-01T10:57:34;7.50;90.30
11043;DHT22;5574;48.786;10.120;2023-03-01T11:00:18;7.60;90.10
11043;DHT22;5574;48.786;10.120;2023-03-01T11:02:48;7.40;90.10
11043;DHT22;5574;48.786;10.120;2023-03-01T11:05:24;7.50;90.40
11043;DHT22;5574;48.786;10.120;2023-03-01T11:07:52;7.60;89.70
11043;DHT22;5574;48.786;10.120;2023-03-01T11:10:22;7.60;90.00
11043;DHT22;5574;48.786;10.120;2023-03-01T11:12:50;7.70;90.10
11043;DHT22;5574;48.786;10.120;2023-03-01T11:15:25;7.90;90.80
11043;DHT22;5574;48.786;10.120;2023-03-01T11:17:53;7.90;90.30
11043;DHT22;5574;48.786;10.120;2023-03-01T11:20:27;8.00;89.60
11043;DHT22;5574;48.786;10.120;2023-03-01T11:22:58;8.10;89.30
11043;DHT22;5574;48.786;10.120;2023-03-01T11:25:28;8.20;88.90
11043;DHT22;5574;48.786;10.120;2023-03-01T11:27:58;8.40;88.80
11043;DHT22;5574;48.786;10.120;2023-03-01T11:30:29;8.30;88.40
11043;DHT22;5574;48.786;10.120;2023-03-01T11:33:05;8.50;88.30
11043;DHT22;5574;48.786;10.120;2023-03-01T11:35:39;8.60;89.20
11043;DHT22;5574;48.786;10.120;2023-03-01T11:38:16;8.80;88.30
11043;DHT22;5574;48.786;10.120;2023-03-01T11:40:48;8.70;87.10
11043;DHT22;5574;48.786;10.120;2023-03-01T11:43:21;8.90;87.50
11043;DHT22;5574;48.786;10.120;2023-03-01T11:48:52;8.90;86.60
11043;DHT22;5574;48.786;10.120;2023-03-01T11:51:40;8.90;86.00
11043;DHT22;5574;48.786;10.120;2023-03-01T11:54:16;8.90;86.60
11043;DHT22;5574;48.786;10.120;2023-03-01T11:56:48;8.70;86.40
11043;DHT22;5574;48.786;10.120;2023-03-01T11:59:47;8.70;87.20
11043;DHT22;5574;48.786;10.120;2023-03-01T12:02:38;8.90;87.20
11043;DHT22;5574;48.786;10.120;2023-03-01T12:05:20;9.00;85.90
11043;DHT22;5574;48.786;10.120;2023-03-01T12:07:54;9.10;86.70
11043;DHT22;5574;48.786;10.120;2023-03-01T12:10:27;9.00;86.40
11043;DHT22;5574;48.786;10.120;2023-03-01T12:13:19;9.10;86.80
11043;DHT22;5574;48.786;10.120;2023-03-01T12:19:05;8.60;86.30
11043;DHT22;5574;48.786;10.120;2023-03-01T12:22:06;8.90;87.20
11043;DHT22;5574;48.786;10.120;2023-03-01T12:27:55;9.10;88.50
11043;DHT22;5574;48.786;10.120;2023-03-01T12:30:33;9.20;86.90
11043;DHT22;5574;48.786;10.120;2023-03-01T12:33:12;9.00;86.60
11043;DHT22;5574;48.786;10.120;2023-03-01T12:36:09;9.00;86.50
11043;DHT22;5574;48.786;10.120;2023-03-01T12:38:41;9.20;87.50
11043;DHT22;5574;48.786;10.120;2023-03-01T12:41:29;9.20;85.70
11043;DHT22;5574;48.786;10.120;2023-03-01T12:44:10;9.10;85.80
11043;DHT22;5574;48.786;10.120;2023-03-01T12:46:55;8.90;87.90
11043;DHT22;5574;48.786;10.120;2023-03-01T12:49:29;8.90;86.60
11043;DHT22;5574;48.786;10.120;2023-03-01T12:51:59;9.00;87.40
11043;DHT22;5574;48.786;10.120;2023-03-01T12:54:30;9.20;87.70
11043;DHT22;5574;48.786;10.120;2023-03-01T12:57:02;9.20;88.00
11043;DHT22;5574;48.786;10.120;2023-03-01T12:59:34;9.10;87.80
11043;DHT22;5574;48.786;10.120;2023-03-01T13:02:10;9.30;90.20
11043;DHT22;5574;48.786;10.120;2023-03-01T13:04:58;9.30;88.60
11043;DHT22;5574;48.786;10.120;2023-03-01T13:07:33;9.30;87.00
11043;DHT22;5574;48.786;10.120;2023-03-01T13:10:11;9.30;88.30
11043;DHT22;5574;48.786;10.120;2023-03-01T13:12:50;9.10;86.80
11043;DHT22;5574;48.786;10.120;2023-03-01T13:15:30;9.20;88.80
11043;DHT22;5574;48.786;10.120;2023-03-01T13:17:59;9.00;87.90
11043;DHT22;5574;48.786;10.120;2023-03-01T13:20:30;9.10;88.10
11043;DHT22;5574;48.786;10.120;2023-03-01T13:23:23;9.10;88.60
11043;DHT22;5574;48.786;10.120;2023-03-01T13:26:11;9.10;88.60
11043;DHT22;5574;48.786;10.120;2023-03-01T13:32:01;9.00;86.70
11043;DHT22;5574;48.786;10.120;2023-03-01T13:34:59;9.10;89.40
11043;DHT22;5574;48.786;10.120;2023-03-01T13:37:32;9.00;86.70
11043;DHT22;5574;48.786;10.120;2023-03-01T13:40:02;8.90;85.90
11043;DHT22;5574;48.786;10.120;2023-03-01T13:42:40;9.10;88.50
11043;DHT22;5574;48.786;10.120;2023-03-01T13:45:17;9.00;86.70
11043;DHT22;5574;48.786;10.120;2023-03-01T13:47:48;9.10;87.20
11043;DHT22;5574;48.786;10.120;2023-03-01T13:50:19;9.00;86.70
11043;DHT22;5574;48.786;10.120;2023-03-01T13:52:52;9.00;86.90
11043;DHT22;5574;48.786;10.120;2023-03-01T13:55:23;9.10;87.60
11043;DHT22;5574;48.786;10.120;2023-03-01T13:57:54;9.10;87.80
11043;DHT22;5574;48.786;10.120;2023-03-01T14:00:29;9.10;87.40
11043;DHT22;5574;48.786;10.120;2023-03-01T14:03:02;9.20;86.90
11043;DHT22;5574;48.786;10.120;2023-03-01T14:05:32;9.20;86.90
11043;DHT22;5574;48.786;10.120;2023-03-01T14:07:58;9.10;85.90
11043;DHT22;5574;48.786;10.120;2023-03-01T14:10:30;9.10;86.80
11043;DHT22;5574;48.786;10.120;2023-03-01T14:13:03;9.00;85.50
11043;DHT22;5574;48.786;10.120;2023-03-01T14:15:37;9.00;86.10
11043;DHT22;5574;48.786;10.120;2023-03-01T14:18:12;9.10;87.10
11043;DHT22;5574;48.786;10.120;2023-03-01T14:20:41;9.10;86.20
11043;DHT22;5574;48.786;10.120;2023-03-01T14:23:11;9.10;86.30
11043;DHT22;5574;48.786;10.120;2023-03-01T14:25:47;9.10;86.20
11043;DHT22;5574;48.786;10.120;2023-03-01T14:28:17;9.10;86.80
11043;DHT22;5574;48.786;10.120;2023-03-01T14:30:45;9.20;85.90
11043;DHT22;5574;48.786;10.120;2023-03-01T14:33:22;9.20;86.00
11043;DHT22;5574;48.786;10.120;2023-03-01T14:35:53;9.20;85.50
11043;DHT22;5574;48.786;10.120;2023-03-01T14:38:21;8.90;84.90
11043;DHT22;5574;48.786;10.120;2023-03-01T14:40:51;8.90;85.50
11043;DHT22;5574;48.786;10.120;2023-03-01T14:43:22;8.80;85.20
11043;DHT22;5574;48.786;10.120;2023-03-01T14:45:51;8.60;87.00
11043;DHT22;5574;48.786;10.120;2023-03-01T14:48:20;8.30;85.90
11043;DHT22;5574;48.786;10.120;2023-03-01T14:50:47;8.50;87.40
11043;DHT22;5574;48.786;10.120;2023-03-01T14:53:17;8.50;87.40
11043;DHT22;5574;48.786;10.120;2023-03-01T14:55:48;8.60;87.00
11043;DHT22;5574;48.786;10.120;2023-03-01T14:58:19;8.60;86.30
11043;DHT22;5574;48.786;10.120;2023-03-01T15:00:49;8.60;86.40
11043;DHT22;5574;48.786;10.120;2023-03-01T15:03:23;8.60;86.30
11043;DHT22;5574;48.786;10.120;2023-03-01T15:05:51;8.50;86.40
11043;DHT22;5574;48.786;10.120;2023-03-01T15:08:21;8.60;87.00
11043;DHT22;5574;48.786;10.120;2023-03-01T15:10:58;8.50;86.70
11043;DHT22;5574;48.786;10.120;2023-03-01T15:13:30;8.60;87.40
11043;DHT22;5574;48.786;10.120;2023-03-01T15:16:07;8.60;86.80
11043;DHT22;5574;48.786;10.120;2023-03-01T15:18:37;8.60;87.30
11043;DHT22;5574;48.786;10.120;2023-03-01T15:21:09;8.60;88.00
11043;DHT22;5574;48.786;10.120;2023-03-01T15:23:37;8.60;87.40
11043;DHT22;5574;48.786;10.120;2023-03-01T15:26:05;8.60;86.60
11043;DHT22;5574;48.786;10.120;2023-03-01T15:28:34;8.60;87.00
11043;DHT22;5574;48.786;10.120;2023-03-01T15:31:04;8.40;86.60
11043;DHT22;5574;48.786;10.120;2023-03-01T15:33:39;8.30;86.70
11043;DHT22;5574;48.786;10.120;2023-03-01T15:36:31;8.30;87.30
11043;DHT22;5574;48.786;10.120;2023-03-01T15:38:58;8.30;87.60
11043;DHT22;5574;48.786;10.120;2023-03-01T15:41:27;8.30;87.60
11043;DHT22;5574;48.786;10.120;2023-03-01T15:43:56;8.20;88.30
11043;DHT22;5574;48.786;10.120;2023-03-01T15:46:26;8.20;88.60
11043;DHT22;5574;48.786;10.120;2023-03-01T15:48:57;8.20;88.40
11043;DHT22;5574;48.786;10.120;2023-03-01T15:51:31;8.20;87.70
11043;DHT22;5574;48.786;10.120;2023-03-01T15:54:00;8.20;88.70
11043;DHT22;5574;48.786;10.120;2023-03-01T15:56:27;8.10;88.00
11043;DHT22;5574;48.786;10.120;2023-03-01T15:58:58;8.10;89.00
11043;DHT22;5574;48.786;10.120;2023-03-01T16:01:25;8.10;88.50
11043;DHT22;5574;48.786;10.120;2023-03-01T16:03:52;8.10;88.20
11043;DHT22;5574;48.786;10.120;2023-03-01T16:06:21;8.10;89.30
11043;DHT22;5574;48.786;10.120;2023-03-01T16:08:47;7.90;88.00
11043;DHT22;5574;48.786;10.120;2023-03-01T16:11:17;8.00;88.60
11043;DHT22;5574;48.786;10.120;2023-03-01T16:13:45;8.00;88.90
11043;DHT22;5574;48.786;10.120;2023-03-01T16:16:12;7.90;89.20
11043;DHT22;5574;48.786;10.120;2023-03-01T16:18:42;7.90;89.30